Portada
METAR-TAF:

METAR-TAF

Aeropuertos :

Aeropuerto Internacional de Baréin

Baréin, Bahréin

latitud: 26-16N, longitud: 050-39E, altitud: 2 m

Observación

El informe se hizo hace 13 minutos, a las 14:00 UTC
Viento 21 kt del norte-noroeste
Temperatura 23°C
Humedad 41%
Presión 1016 hPa
Visibilidad 10 km o más
sin nubes por debajo de 1500 m y sin presencia de cumulonimbus.

METAR: OBBI 241400Z 33021KT CAVOK 23/09 Q1016 NOSIG

Hora: 17:13 (14:13 UTC)

Pronóstico

El informe se hizo hace 3 horas y 13 minutos, a las 11:00 UTC
Pronóstico válido del 24 a las 12 UTC al 25 a las 18 UTC
Viento 18 kt del norte-noroeste con ráfagas de 28 kt
Visibilidad 10 km o más
sin nubes por debajo de 1500 m y sin presencia de cumulonimbus.
Evolucionando progresivamente
del 24 a las 17 UTC al 24 a las 19 UTC
Viento 17 kt del norte-noroeste

TAF: OBBI 241100Z 2412/2518 33018G28KT CAVOK BECMG 2417/2419 33017KT

Observaciones y pronósticos meteorológicos de más de 4000 aeropuertos (mensajes METAR y TAF).

Los puntos amarillos y rojos representan las estaciones disponibles.

Ponga el ratón en el punto deseado para ver el nombre de la estación.

Haga clic para ver las observaciones y los pronósticos meteorológicos.

Para cambiar el mapa : haga clic en los botones verdes con una cruz de color negro para hacer un zoom, en el botón verde con un guión para alejar o en las flechas verdes para mapas adyacentes.


METAR-TAF: